Capitol Logistics 74




KPDX
Portland International Airport
Portland, Oregon
PANC
Ted Stevens Anchorage International Airport
Anchorage, Alaska

Activity Log

Date Flight Route Aircraft Duration
No Flights Yet

Route Details

Aircraft Information
Group: Boeing Common
Types: B752,B762,B763
Route Data
Demand: M
Distance: 1339nm
Duration: 3h 25m
Recm'd Route: TOU J523 YZT 5440N/13217W BKA LAIRE J133 JOH ELLAM5
Origin Wx: KPDX 252153Z 00000KT 10SM FEW250 08/01 A3025 RMK AO2 SLP245 T00780011
Dest. Wx: PANC 252204Z 19003KT 1 1/2SM R07R/2600V6000FT -SN BR BKN029 BKN036 OVC050 00/M03 A3006 RMK AO2 P0000 T00001028
Notes:

Financial History
Total Freight: 0lbs
Average Load: 0lbs/flt
Fuel Used: 0lbs
Avg. Fuel Used: 0lbs/flt
Fuel Expense: $0
Avg. Fuel Expense: $0
Avg. Fuel Cost: $0/lbs
Total Gross Income: $0
Pilot Pay: $0
Total Expenses: $0
Total Revenue: $0
Average Revenue: $0